createdAt,value
2022-11-12T00:00:18.371Z,4.00
2022-11-12T00:05:40.125Z,6.00
2022-11-12T00:11:02.447Z,6.20
2022-11-12T00:16:24.016Z,7.00
2022-11-12T00:21:45.378Z,6.00
2022-11-12T00:27:08.310Z,6.00
2022-11-12T00:32:29.832Z,6.00
2022-11-12T00:37:55.116Z,7.00
2022-11-12T00:43:17.765Z,6.00
2022-11-12T00:48:39.150Z,6.00
2022-11-12T00:54:00.591Z,6.00
2022-11-12T00:59:23.369Z,6.00
2022-11-12T01:04:44.929Z,5.80
2022-11-12T01:10:07.255Z,6.20
2022-11-12T01:15:29.952Z,6.00
2022-11-12T01:20:51.035Z,6.20
2022-11-12T01:26:13.950Z,6.00
2022-11-12T01:31:37.644Z,6.00
2022-11-12T01:36:58.867Z,6.00
2022-11-12T01:42:20.268Z,6.00
2022-11-12T01:47:43.233Z,5.00
2022-11-12T01:53:06.262Z,4.40
2022-11-12T01:58:29.124Z,6.40
2022-11-12T02:03:52.283Z,6.00
2022-11-12T02:09:13.812Z,5.00
2022-11-12T02:14:35.195Z,6.00
2022-11-12T02:20:00.700Z,5.40
2022-11-12T02:25:24.326Z,6.00
2022-11-12T02:30:46.420Z,6.00
2022-11-12T02:36:07.895Z,6.00
2022-11-12T02:41:30.849Z,4.60
2022-11-12T02:46:52.462Z,6.00
2022-11-12T02:52:13.856Z,6.20
2022-11-12T02:57:36.827Z,6.00
2022-11-12T03:03:01.324Z,6.60
2022-11-12T03:08:22.453Z,5.80
2022-11-12T03:13:45.411Z,4.40
2022-11-12T03:19:07.231Z,5.20
2022-11-12T03:24:29.118Z,7.40
2022-11-12T03:29:51.801Z,6.00
2022-11-12T03:35:13.400Z,4.00
2022-11-12T03:40:34.762Z,5.60
2022-11-12T03:45:57.404Z,6.00
2022-11-12T03:51:21.138Z,6.00
2022-11-12T03:56:42.406Z,4.60
2022-11-12T04:02:05.122Z,4.00
2022-11-12T04:07:44.141Z,6.00
2022-11-12T04:13:23.081Z,4.20
2022-11-12T04:19:03.934Z,4.80
2022-11-12T04:24:43.737Z,4.20
2022-11-12T04:30:19.011Z,5.80
2022-11-12T04:35:42.044Z,6.00
2022-11-12T04:41:23.131Z,4.00
2022-11-12T04:46:44.653Z,6.00
2022-11-12T04:52:07.403Z,4.00
2022-11-12T04:57:28.567Z,4.40
2022-11-12T05:02:50.481Z,4.40
2022-11-12T05:08:13.242Z,5.60
2022-11-12T05:13:34.716Z,4.80
2022-11-12T05:18:56.224Z,4.00
2022-11-12T05:24:40.470Z,4.60
2022-11-12T05:30:00.108Z,5.40
2022-11-12T05:35:21.564Z,6.40
2022-11-12T05:40:46.865Z,5.20
2022-11-12T05:46:08.090Z,6.00
2022-11-12T05:51:29.638Z,6.00
2022-11-12T05:56:52.505Z,5.20
2022-11-12T06:02:13.946Z,5.20
2022-11-12T06:07:35.347Z,5.20
2022-11-12T06:12:58.138Z,7.20
2022-11-12T06:18:19.585Z,6.20
2022-11-12T06:23:41.044Z,4.00
2022-11-12T06:29:03.875Z,5.60
2022-11-12T06:34:25.420Z,4.00
2022-11-12T06:39:46.847Z,6.00
2022-11-12T06:45:11.206Z,4.00
2022-11-12T06:50:32.273Z,4.80
2022-11-12T06:55:53.536Z,5.20
2022-11-12T07:01:17.317Z,4.00
2022-11-12T07:06:38.895Z,4.00
2022-11-12T07:12:00.330Z,4.00
2022-11-12T07:17:23.054Z,5.60
2022-11-12T07:22:44.580Z,6.00
2022-11-12T07:28:06.064Z,4.00
2022-11-12T07:33:29.258Z,4.00
2022-11-12T07:38:52.648Z,4.40
2022-11-12T07:44:13.935Z,6.00
2022-11-12T07:49:36.695Z,5.20
2022-11-12T07:54:58.141Z,3.00
2022-11-12T08:00:19.925Z,4.00
2022-11-12T08:05:45.822Z,6.40
2022-11-12T08:11:07.343Z,7.60
2022-11-12T08:16:28.964Z,7.40
2022-11-12T08:21:51.876Z,8.00
2022-11-12T08:27:13.303Z,9.20
2022-11-12T08:32:34.807Z,12.60
2022-11-12T08:38:00.381Z,11.80
2022-11-12T08:43:21.917Z,15.40
2022-11-12T08:48:43.262Z,13.20
2022-11-12T08:54:06.455Z,11.00
2022-11-12T08:59:27.878Z,11.40
2022-11-12T09:04:49.405Z,10.40
2022-11-12T09:10:12.449Z,8.00
2022-11-12T09:15:38.228Z,23.40
2022-11-12T09:21:03.695Z,19.00
2022-11-12T09:26:26.236Z,17.20
2022-11-12T09:31:47.794Z,17.40
2022-11-12T09:37:09.223Z,16.60
2022-11-12T09:42:32.065Z,14.00
2022-11-12T09:47:54.947Z,13.00
2022-11-12T09:53:18.160Z,14.40
2022-11-12T09:58:40.831Z,12.00
2022-11-12T10:04:07.764Z,11.20
2022-11-12T10:09:30.205Z,12.20
2022-11-12T10:15:30.557Z,11.00
2022-11-12T10:20:56.109Z,13.60
2022-11-12T10:26:18.213Z,11.60
2022-11-12T10:31:40.827Z,12.00
2022-11-12T10:37:03.438Z,11.00
2022-11-12T10:42:24.752Z,12.00
2022-11-12T10:47:47.711Z,7.20
2022-11-12T10:53:11.839Z,10.00
2022-11-12T10:58:33.301Z,11.00
2022-11-12T11:03:57.216Z,14.40
2022-11-12T11:09:20.652Z,8.20
2022-11-12T11:14:44.416Z,8.40
2022-11-12T11:20:12.763Z,13.00
2022-11-12T11:25:34.340Z,29.00
2022-11-12T11:30:58.794Z,29.75
2022-11-12T11:36:24.354Z,34.25
2022-11-12T11:41:52.353Z,31.00
2022-11-12T11:47:21.445Z,31.25
2022-11-12T11:52:46.666Z,30.50
2022-11-12T11:58:13.991Z,23.60
2022-11-12T12:03:40.577Z,25.00
2022-11-12T12:09:11.844Z,22.00
2022-11-12T12:14:46.036Z,9.00
2022-11-12T12:20:15.843Z,18.40
2022-11-12T12:25:39.521Z,16.40
2022-11-12T12:31:05.358Z,18.20
2022-11-12T12:36:27.891Z,15.20
2022-11-12T12:41:54.103Z,14.80
2022-11-12T12:47:15.761Z,14.20
2022-11-12T12:53:04.437Z,15.60
2022-11-12T12:58:29.168Z,15.60
2022-11-12T13:03:57.505Z,12.40
2022-11-12T13:09:23.824Z,13.20
2022-11-12T13:14:51.942Z,10.20
2022-11-12T13:20:38.430Z,13.00
2022-11-12T13:26:33.730Z,10.00
2022-11-12T13:32:34.792Z,9.80
2022-11-12T13:37:58.238Z,10.40
2022-11-12T13:43:31.226Z,10.00
2022-11-12T13:48:58.532Z,9.80
2022-11-12T13:54:31.315Z,9.80
2022-11-12T14:00:11.403Z,9.00
2022-11-12T14:05:35.040Z,9.00
2022-11-12T14:11:04.825Z,7.20
2022-11-12T14:16:38.464Z,8.60
2022-11-12T14:22:02.493Z,8.00
2022-11-12T14:27:25.604Z,9.20
2022-11-12T14:32:48.164Z,8.00
2022-11-12T14:38:19.436Z,7.00
2022-11-12T14:43:43.691Z,9.00
2022-11-12T14:49:05.522Z,9.60
2022-11-12T14:54:30.009Z,7.00
2022-11-12T14:59:51.823Z,8.20
2022-11-12T15:05:14.322Z,8.80
2022-11-12T15:10:38.149Z,9.40
2022-11-12T15:16:02.212Z,9.00
2022-11-12T15:21:25.658Z,7.80
2022-11-12T15:26:49.244Z,8.60
2022-11-12T15:32:32.811Z,9.00
2022-11-12T15:37:54.254Z,8.40
2022-11-12T15:43:18.368Z,9.40
2022-11-12T15:48:39.984Z,8.60
2022-11-12T15:54:01.535Z,8.00
2022-11-12T15:59:24.447Z,8.40
2022-11-12T16:04:45.874Z,8.80
2022-11-12T16:10:08.007Z,8.80
2022-11-12T16:15:31.011Z,8.40
2022-11-12T16:20:52.445Z,7.80
2022-11-12T16:26:14.772Z,8.00
2022-11-12T16:31:37.498Z,7.00
2022-11-12T16:36:58.840Z,8.80
2022-11-12T16:42:20.213Z,9.20
2022-11-12T16:47:46.289Z,9.40
2022-11-12T16:53:07.432Z,8.00
2022-11-12T16:58:29.016Z,7.60
2022-11-12T17:03:52.113Z,8.40
2022-11-12T17:09:13.532Z,8.00
2022-11-12T17:14:35.175Z,7.20
2022-11-12T17:19:57.945Z,8.00
2022-11-12T17:25:20.050Z,9.00
2022-11-12T17:30:41.802Z,7.00
2022-11-12T17:36:05.262Z,8.00
2022-11-12T17:41:28.442Z,9.00
2022-11-12T17:46:50.403Z,8.60
2022-11-12T17:52:13.147Z,8.20
2022-11-12T17:57:34.638Z,8.60
2022-11-12T18:02:56.424Z,9.00
2022-11-12T18:08:19.563Z,9.00
2022-11-12T18:13:40.880Z,11.60
2022-11-12T18:19:02.290Z,10.80
2022-11-12T18:24:25.538Z,8.80
2022-11-12T18:29:47.284Z,11.20
2022-11-12T18:35:09.270Z,11.60
2022-11-12T18:40:31.983Z,11.60
2022-11-12T18:45:55.416Z,13.00
2022-11-12T18:51:18.371Z,12.00
2022-11-12T18:56:42.607Z,12.80
2022-11-12T19:02:04.103Z,13.00
2022-11-12T19:07:26.020Z,13.60
2022-11-12T19:12:48.768Z,13.00
2022-11-12T19:18:10.034Z,12.00
2022-11-12T19:23:32.073Z,13.00
2022-11-12T19:28:55.049Z,13.00
2022-11-12T19:34:16.499Z,14.00
2022-11-12T19:39:37.955Z,15.00
2022-11-12T19:45:00.815Z,14.40
2022-11-12T19:50:24.744Z,15.60
2022-11-12T19:55:46.238Z,15.40
2022-11-12T20:01:10.033Z,16.80
2022-11-12T20:06:31.911Z,18.00
2022-11-12T20:11:54.011Z,18.20
2022-11-12T20:17:16.666Z,19.60
2022-11-12T20:22:38.218Z,19.00
2022-11-12T20:27:59.787Z,20.20
2022-11-12T20:33:22.772Z,20.00
2022-11-12T20:38:44.870Z,20.20
2022-11-12T20:44:06.519Z,19.60
2022-11-12T20:49:29.107Z,21.20
2022-11-12T20:54:50.725Z,22.20
2022-11-12T21:00:14.755Z,21.80
2022-11-12T21:05:38.054Z,23.00
2022-11-12T21:11:01.859Z,24.50
2022-11-12T21:16:23.108Z,23.25
2022-11-12T21:21:45.994Z,25.25
2022-11-12T21:27:07.445Z,24.50
2022-11-12T21:32:28.735Z,23.25
2022-11-12T21:37:51.697Z,25.33
2022-11-12T21:43:13.199Z,25.00
2022-11-12T21:48:34.965Z,27.00
2022-11-12T21:53:58.576Z,25.25
2022-11-12T21:59:20.114Z,24.00
2022-11-12T22:04:41.655Z,25.25
2022-11-12T22:10:04.808Z,25.50
2022-11-12T22:15:25.962Z,24.75
2022-11-12T22:20:56.815Z,23.50
2022-11-12T22:26:21.862Z,24.25
2022-11-12T22:31:43.298Z,24.75
2022-11-12T22:37:04.737Z,24.25
2022-11-12T22:42:27.567Z,25.75
2022-11-12T22:47:48.972Z,23.50
2022-11-12T22:53:10.534Z,24.25
2022-11-12T22:58:35.601Z,21.60
2022-11-12T23:03:57.969Z,23.00
2022-11-12T23:09:19.568Z,22.60
2022-11-12T23:14:42.298Z,24.25
2022-11-12T23:20:03.662Z,24.50
2022-11-12T23:25:25.188Z,25.25
2022-11-12T23:30:50.872Z,23.40
2022-11-12T23:36:12.371Z,22.80
2022-11-12T23:41:34.148Z,23.00
2022-11-12T23:46:56.904Z,22.75
2022-11-12T23:52:19.053Z,23.80
2022-11-12T23:57:40.363Z,24.00
